Time;durP1;ratioP1;P1;durP2;ratioP2;P2;SDS_P1;SDS_P2;PMS_P1;PMS_P2;Temp;Humidity;BMP_temperature;BMP_pressure;BME280_temperature;BME280_humidity;BME280_pressure;Samples;Min_cycle;Max_cycle;Signal;HPM_P1;HPM_P2
2022/06/13 00:01:20;;;;;;;5.82;3.70;;;26.00;58.70;;;;;;5059120;28;20032;-85
2022/06/13 00:03:47;;;;;;;7.35;4.30;;;26.20;58.30;;;;;;5059158;28;20090;-80
2022/06/13 00:06:13;;;;;;;9.35;4.60;;;26.10;58.60;;;;;;5059504;28;20108;-84
2022/06/13 00:08:39;;;;;;;6.85;4.63;;;26.20;58.60;;;;;;5059183;28;20029;-83
2022/06/13 00:11:13;;;;;;;10.98;5.28;;;26.30;58.70;;;;;;5058845;28;20139;-83
2022/06/13 00:13:42;;;;;;;6.28;4.68;;;26.30;58.80;;;;;;5058973;28;20047;-84
2022/06/13 00:16:08;;;;;;;7.30;5.10;;;26.20;59.20;;;;;;5077036;28;20091;-84
2022/06/13 00:18:34;;;;;;;5.10;4.50;;;26.00;59.70;;;;;;5058908;28;20085;-84
2022/06/13 00:20:59;;;;;;;6.40;4.85;;;26.10;59.60;;;;;;5058636;28;20040;-83
2022/06/13 00:23:25;;;;;;;7.30;5.75;;;26.20;59.60;;;;;;5058855;28;20029;-84
2022/06/13 00:25:51;;;;;;;5.45;4.70;;;26.10;59.80;;;;;;5058901;28;20069;-83
2022/06/13 00:28:17;;;;;;;7.32;4.97;;;25.70;60.50;;;;;;5058808;28;20471;-83
2022/06/13 00:30:42;;;;;;;6.82;5.85;;;25.20;61.90;;;;;;5058652;28;20592;-83
2022/06/13 00:33:08;;;;;;;6.75;5.72;;;25.10;62.10;;;;;;5058573;28;20033;-82
2022/06/13 00:35:34;;;;;;;8.40;5.68;;;25.10;62.50;;;;;;5058751;28;20463;-82
2022/06/13 00:37:59;;;;;;;9.45;5.70;;;25.30;61.80;;;;;;5076375;28;20029;-83
2022/06/13 00:40:25;;;;;;;7.55;5.68;;;25.30;62.00;;;;;;5058572;28;20021;-81
2022/06/13 00:42:51;;;;;;;8.15;6.38;;;25.40;62.20;;;;;;5077003;28;20032;-82
2022/06/13 00:45:23;;;;;;;10.82;6.28;;;25.50;61.30;;;;;;5058820;28;20482;-84
2022/06/13 00:47:52;;;;;;;7.45;6.65;;;25.60;61.10;;;;;;5058721;28;20033;-84
2022/06/13 00:50:34;;;;;;;7.55;6.18;;;25.70;60.90;;;;;;5058433;28;20130;-83
2022/06/13 00:53:03;;;;;;;6.68;5.82;;;25.80;60.90;;;;;;5058379;28;20021;-84
2022/06/13 00:55:39;;;;;;;7.22;6.30;;;25.80;60.70;;;;;;5076127;28;20033;-83
2022/06/13 00:58:05;;;;;;;7.70;6.32;;;25.70;61.20;;;;;;5058559;28;20469;-84
2022/06/13 01:00:33;;;;;;;7.90;6.38;;;25.60;61.10;;;;;;5058462;28;20024;-84
2022/06/13 01:03:01;;;;;;;7.30;6.22;;;25.70;61.40;;;;;;5058332;28;20043;-83
2022/06/13 01:05:30;;;;;;;7.40;6.07;;;25.80;61.00;;;;;;5075693;28;20032;-83
2022/06/13 01:08:00;;;;;;;8.90;5.90;;;25.80;60.50;;;;;;5057890;28;20025;-83
2022/06/13 01:13:11;;;;;;;7.85;6.30;;;25.60;61.10;;;;;;5076006;28;20024;-82
2022/06/13 01:15:37;;;;;;;6.53;5.43;;;25.50;60.90;;;;;;5057976;28;20035;-84
2022/06/13 01:18:39;;;;;;;6.70;5.70;;;25.40;61.30;;;;;;5057500;28;20033;-82
2022/06/13 01:21:20;;;;;;;6.53;4.97;;;25.10;61.70;;;;;;5057420;28;20078;-82
2022/06/13 01:24:11;;;;;;;8.77;5.80;;;25.10;61.10;;;;;;5075404;28;20305;-82
2022/06/13 01:26:58;;;;;;;6.45;5.10;;;25.30;60.30;;;;;;5057819;28;20029;-84
2022/06/13 01:29:49;;;;;;;6.43;5.80;;;25.20;61.00;;;;;;5057782;28;20031;-84
2022/06/13 01:32:26;;;;;;;6.35;5.68;;;25.30;60.60;;;;;;5057568;28;20063;-84
2022/06/13 01:35:13;;;;;;;5.47;4.68;;;25.40;60.40;;;;;;5075379;28;20028;-83
2022/06/13 01:37:58;;;;;;;6.50;4.70;;;25.00;61.30;;;;;;5057546;28;20115;-82
2022/06/13 01:40:42;;;;;;;6.68;5.60;;;24.50;62.30;;;;;;5057464;28;20535;-83
2022/06/13 01:43:08;;;;;;;5.60;4.78;;;24.50;62.50;;;;;;5057009;28;20123;-85
2022/06/13 01:45:44;;;;;;;7.22;5.57;;;24.50;62.40;;;;;;5057676;28;20086;-84
2022/06/13 01:48:35;;;;;;;7.35;4.93;;;24.60;62.50;;;;;;5075258;28;20037;-81
2022/06/13 01:51:10;;;;;;;8.63;5.18;;;24.80;61.80;;;;;;5056385;28;20036;-84
2022/06/13 01:54:03;;;;;;;7.05;5.57;;;24.80;61.40;;;;;;5057383;28;20151;-84
2022/06/13 01:57:00;;;;;;;9.07;5.25;;;24.90;60.60;;;;;;5075048;28;20028;-82
2022/06/13 01:59:33;;;;;;;6.53;5.82;;;25.00;60.20;;;;;;5074943;28;20027;-84
2022/06/13 02:02:10;;;;;;;6.63;5.30;;;25.00;60.10;;;;;;5057067;28;20391;-85
2022/06/13 02:04:44;;;;;;;7.38;5.25;;;25.00;59.90;;;;;;5057000;28;20021;-84
2022/06/13 02:07:26;;;;;;;6.95;4.93;;;24.80;60.50;;;;;;5074819;28;20044;-83
2022/06/13 02:10:04;;;;;;;6.75;4.70;;;24.70;61.20;;;;;;5074526;28;20441;-88
2022/06/13 02:12:34;;;;;;;6.20;5.15;;;24.30;61.80;;;;;;5074644;28;20470;-84
2022/06/13 02:15:21;;;;;;;7.55;5.35;;;24.10;62.50;;;;;;5074907;28;20477;-84
2022/06/13 02:17:54;;;;;;;6.68;5.28;;;24.30;62.00;;;;;;5074317;28;20039;-83
2022/06/13 02:20:25;;;;;;;6.10;5.40;;;24.50;61.20;;;;;;5056396;28;20538;-83
2022/06/13 02:23:06;;;;;;;5.80;5.20;;;24.80;60.70;;;;;;5073460;28;20044;-84
2022/06/13 02:25:49;;;;;;;6.35;4.50;;;24.90;60.00;;;;;;5074388;28;20020;-83
2022/06/13 02:28:39;;;;;;;5.82;4.80;;;24.60;60.40;;;;;;5074124;28;20024;-82
2022/06/13 02:31:13;;;;;;;8.85;5.35;;;24.50;60.80;;;;;;5073841;28;20374;-82
2022/06/13 02:34:04;;;;;;;8.82;5.07;;;24.70;60.10;;;;;;5074105;28;20039;-82
2022/06/13 02:36:47;;;;;;;6.13;4.75;;;24.80;60.30;;;;;;5056586;28;20024;-82
2022/06/13 02:39:26;;;;;;;9.02;4.90;;;24.70;60.40;;;;;;5056138;28;20541;-82
2022/06/13 02:42:01;;;;;;;8.17;5.27;;;24.60;61.00;;;;;;5074243;28;20043;-84
2022/06/13 02:44:41;;;;;;;6.40;4.90;;;24.60;60.50;;;;;;5073934;28;20485;-80
2022/06/13 02:47:21;;;;;;;7.97;5.87;;;24.50;60.30;;;;;;5073769;28;20029;-82
2022/06/13 02:50:25;;;;;;;8.48;5.32;;;24.30;60.60;;;;;;5067315;28;20068;-81
2022/06/13 02:52:56;;;;;;;8.80;5.13;;;24.20;60.90;;;;;;4973029;28;20035;-80
2022/06/13 02:55:22;;;;;;;6.68;5.45;;;24.00;61.50;;;;;;4973120;28;20122;-83
2022/06/13 02:57:53;;;;;;;7.10;5.50;;;24.10;61.40;;;;;;4957035;28;20026;-82
2022/06/13 03:00:40;;;;;;;7.40;6.32;;;24.10;61.50;;;;;;4957110;28;20552;-82
2022/06/13 03:03:11;;;;;;;7.28;5.60;;;24.30;61.40;;;;;;4956890;28;20082;-83
2022/06/13 03:05:51;;;;;;;8.50;6.43;;;24.20;62.20;;;;;;4972962;28;20391;-82
2022/06/13 03:08:32;;;;;;;7.53;6.10;;;24.10;62.40;;;;;;4972980;28;20039;-80
2022/06/13 03:11:03;;;;;;;9.60;7.13;;;24.10;62.10;;;;;;4956774;28;20105;-81
2022/06/13 03:14:19;;;;;;;8.35;6.90;;;24.10;62.10;;;;;;4956880;28;20034;-82
2022/06/13 03:16:53;;;;;;;9.00;7.00;;;24.30;62.10;;;;;;4896618;29;20036;-82
2022/06/13 03:19:44;;;;;;;6.78;6.05;;;24.40;61.90;;;;;;4896672;29;20037;-81
2022/06/13 03:22:20;;;;;;;7.30;6.13;;;24.50;61.60;;;;;;4896375;29;20127;-82
2022/06/13 03:24:55;;;;;;;8.10;6.05;;;24.50;61.80;;;;;;4881063;29;20081;-82
2022/06/13 03:27:58;;;;;;;7.15;5.72;;;24.60;61.70;;;;;;4900471;28;20040;-81
2022/06/13 03:30:29;;;;;;;8.07;5.60;;;24.60;61.50;;;;;;4956392;28;20031;-80
2022/06/13 03:35:48;;;;;;;6.90;6.07;;;24.70;61.60;;;;;;4972932;28;20042;-83
2022/06/13 03:38:20;;;;;;;6.47;5.35;;;24.60;61.70;;;;;;4956422;28;20035;-80
2022/06/13 03:40:50;;;;;;;8.43;5.60;;;24.50;62.30;;;;;;4956432;28;20019;-81
2022/06/13 03:43:28;;;;;;;7.65;5.05;;;24.40;62.30;;;;;;4955947;28;20113;-83
2022/06/13 03:46:22;;;;;;;8.07;5.22;;;24.10;63.40;;;;;;4973038;28;20039;-84
2022/06/13 03:49:09;;;;;;;8.90;5.40;;;24.10;63.60;;;;;;4972507;28;20035;-83
2022/06/13 03:51:40;;;;;;;7.72;5.50;;;24.50;62.70;;;;;;5050871;28;20039;-82
2022/06/13 03:54:23;;;;;;;8.43;5.30;;;24.70;62.20;;;;;;5073213;28;20017;-80
2022/06/13 03:56:59;;;;;;;9.57;5.72;;;25.00;61.80;;;;;;5055275;28;20048;-80
2022/06/13 03:59:34;;;;;;;6.50;5.72;;;25.10;61.30;;;;;;5051979;28;20048;-83
2022/06/13 04:02:24;;;;;;;6.95;6.07;;;25.30;61.70;;;;;;5065105;28;20067;-83
2022/06/13 04:04:53;;;;;;;9.02;5.63;;;25.40;61.00;;;;;;5056005;28;20043;-81
2022/06/13 04:07:20;;;;;;;8.75;5.55;;;25.50;61.00;;;;;;5073087;28;20040;-83
2022/06/13 04:10:06;;;;;;;7.28;4.90;;;25.50;61.20;;;;;;5073082;28;20024;-82
2022/06/13 04:12:38;;;;;;;8.25;5.68;;;25.50;61.20;;;;;;5055123;28;20020;-81
2022/06/13 04:15:25;;;;;;;7.15;5.75;;;25.60;61.30;;;;;;5072877;28;20017;-80
2022/06/13 04:18:05;;;;;;;6.65;5.95;;;25.70;61.30;;;;;;5072883;28;20028;-81
2022/06/13 04:20:41;;;;;;;7.45;5.55;;;25.80;61.10;;;;;;5054744;28;20364;-81
2022/06/13 04:23:33;;;;;;;7.43;5.63;;;25.80;61.20;;;;;;5072489;28;20079;-80
2022/06/13 04:26:05;;;;;;;6.45;5.25;;;26.00;61.00;;;;;;5072420;28;20107;-83
2022/06/13 04:28:48;;;;;;;7.95;5.70;;;26.10;60.90;;;;;;5054712;28;20448;-82
2022/06/13 04:31:18;;;;;;;9.52;5.97;;;26.20;60.80;;;;;;5055118;28;20020;-84
2022/06/13 04:33:52;;;;;;;7.00;5.77;;;26.30;60.90;;;;;;5054915;28;20036;-80
2022/06/13 04:36:20;;;;;;;8.68;5.53;;;26.30;61.00;;;;;;5054104;28;20768;-80
2022/06/13 04:38:52;;;;;;;8.35;5.10;;;26.20;61.20;;;;;;5072722;28;20513;-81
2022/06/13 04:41:21;;;;;;;6.65;4.80;;;25.90;61.30;;;;;;5072421;28;20017;-79
2022/06/13 04:43:50;;;;;;;6.50;4.88;;;25.90;60.90;;;;;;5072894;28;20035;-81
2022/06/13 04:46:25;;;;;;;9.40;4.70;;;26.00;60.40;;;;;;5057302;28;20025;-81
2022/06/13 04:48:54;;;;;;;7.32;4.57;;;26.10;60.10;;;;;;5076093;28;20021;-82
2022/06/13 04:51:24;;;;;;;7.88;4.47;;;25.90;60.50;;;;;;4707730;28;10000372;-84
2022/06/13 04:54:09;;;;;;;6.47;3.90;;;26.00;60.50;;;;;;5056265;28;20479;-79
2022/06/13 04:56:35;;;;;;;5.45;3.50;;;26.40;59.10;;;;;;5056360;28;20714;-85
2022/06/13 04:59:02;;;;;;;5.20;3.60;;;26.20;57.80;;;;;;5057008;28;20560;-82
2022/06/13 05:01:33;;;;;;;5.20;3.80;;;26.30;58.80;;;;;;5057306;28;20028;-89
2022/06/13 05:04:03;;;;;;;6.30;3.75;;;26.50;59.30;;;;;;5060114;28;20041;-83
2022/06/13 05:06:45;;;;;;;5.65;3.80;;;26.70;58.60;;;;;;5057138;28;20029;-82
2022/06/13 05:09:11;;;;;;;5.13;3.28;;;26.90;57.50;;;;;;5056600;28;20020;-85
2022/06/13 05:12:08;;;;;;;5.20;3.60;;;27.20;57.40;;;;;;5066181;28;20025;-79
2022/06/13 05:14:44;;;;;;;5.18;3.20;;;27.40;57.30;;;;;;5057718;28;20379;-83
2022/06/13 05:17:19;;;;;;;6.88;3.63;;;27.60;57.40;;;;;;5072814;28;20029;-84
2022/06/13 05:20:02;;;;;;;4.30;3.38;;;27.60;57.80;;;;;;5073980;28;20017;-93
2022/06/13 05:22:59;;;;;;;5.93;3.50;;;27.50;58.90;;;;;;5051543;28;20053;-83
2022/06/13 05:25:44;;;;;;;4.72;3.58;;;27.20;59.30;;;;;;5071659;28;20052;-86
2022/06/13 05:28:19;;;;;;;5.55;3.90;;;26.60;59.70;;;;;;5057223;28;20032;-82
2022/06/13 05:30:48;;;;;;;4.88;3.38;;;26.80;59.60;;;;;;5075761;28;20079;-82
2022/06/13 05:33:16;;;;;;;5.60;3.60;;;27.20;59.30;;;;;;5055696;28;20527;-83
2022/06/13 05:35:44;;;;;;;6.65;4.10;;;27.30;59.40;;;;;;5055811;28;20482;-84
2022/06/13 05:38:18;;;;;;;5.25;3.53;;;27.60;59.10;;;;;;5041379;28;20027;-88
2022/06/13 05:40:45;;;;;;;5.93;3.10;;;27.90;57.90;;;;;;5074026;28;20046;-84
2022/06/13 05:43:11;;;;;;;6.07;3.40;;;27.80;58.00;;;;;;5057109;28;20036;-83
2022/06/13 05:45:41;;;;;;;5.25;3.17;;;27.40;58.30;;;;;;5057207;28;20024;-81
2022/06/13 05:48:13;;;;;;;6.05;3.10;;;27.30;58.80;;;;;;5046115;28;20036;-87
2022/06/13 05:50:38;;;;;;;6.45;3.45;;;27.80;57.70;;;;;;5051615;28;20033;-85
2022/06/13 05:53:04;;;;;;;5.43;3.28;;;28.00;57.70;;;;;;5058238;28;20039;-90
2022/06/13 05:55:31;;;;;;;4.43;3.08;;;27.80;57.60;;;;;;5056453;28;20021;-82
2022/06/13 05:57:57;;;;;;;6.55;3.25;;;28.10;57.70;;;;;;5055885;28;20145;-82
2022/06/13 06:00:27;;;;;;;5.85;3.03;;;28.40;57.00;;;;;;5055839;28;20443;-84
2022/06/13 06:02:53;;;;;;;4.35;2.95;;;28.70;57.60;;;;;;5056033;28;20037;-94
2022/06/13 06:05:18;;;;;;;5.70;3.30;;;29.00;55.60;;;;;;5057472;28;20085;-92
2022/06/13 06:07:44;;;;;;;4.20;3.40;;;29.00;55.80;;;;;;5057371;28;20085;-83
2022/06/13 06:10:19;;;;;;;5.35;3.22;;;29.40;56.50;;;;;;5040317;28;20044;-84
2022/06/13 06:12:45;;;;;;;5.05;3.17;;;29.30;55.40;;;;;;5055040;28;20033;-84
2022/06/13 06:15:12;;;;;;;6.57;3.53;;;29.60;56.20;;;;;;5055852;28;20031;-82
2022/06/13 06:17:37;;;;;;;4.97;3.63;;;29.90;55.20;;;;;;5056102;28;20035;-84
2022/06/13 06:20:04;;;;;;;3.92;3.00;;;30.40;54.90;;;;;;5050231;28;20017;-84
2022/06/13 06:22:29;;;;;;;5.00;3.10;;;30.60;52.80;;;;;;5055609;28;20117;-83
2022/06/13 06:24:55;;;;;;;3.70;2.70;;;30.50;54.50;;;;;;5055006;28;20475;-89
2022/06/13 06:27:21;;;;;;;4.88;2.95;;;30.50;55.90;;;;;;5055247;28;20050;-80
2022/06/13 06:29:47;;;;;;;4.25;3.15;;;30.30;56.80;;;;;;5073090;28;20650;-84
2022/06/13 06:32:12;;;;;;;4.53;3.08;;;30.50;55.00;;;;;;5058824;28;20082;-81
2022/06/13 06:34:38;;;;;;;4.85;3.00;;;30.80;54.30;;;;;;5056298;28;20119;-83
2022/06/13 06:37:04;;;;;;;4.68;3.00;;;31.00;53.60;;;;;;5056135;28;20482;-87
2022/06/13 06:39:30;;;;;;;4.28;3.00;;;31.30;53.80;;;;;;5052550;28;20023;-87
2022/06/13 06:41:56;;;;;;;4.10;2.90;;;31.10;54.80;;;;;;5052968;28;20033;-84
2022/06/13 06:44:22;;;;;;;5.32;3.08;;;31.20;54.20;;;;;;5056414;28;20024;-82
2022/06/13 06:46:48;;;;;;;4.55;3.00;;;31.30;52.20;;;;;;5053400;28;20025;-87
2022/06/13 06:49:14;;;;;;;4.82;2.90;;;31.50;52.40;;;;;;5086929;28;20053;-87
2022/06/13 06:51:44;;;;;;;4.28;3.20;;;31.70;52.90;;;;;;5053828;28;20382;-85
2022/06/13 06:59:55;;;;;;;4.82;2.92;;;32.40;50.00;;;;;;5072989;28;20077;-87
2022/06/13 07:02:27;;;;;;;7.55;3.00;;;32.20;50.80;;;;;;5053609;28;20040;-84
2022/06/13 07:04:54;;;;;;;3.88;2.95;;;31.80;51.10;;;;;;5055074;28;20024;-91
2022/06/13 07:07:21;;;;;;;4.75;2.80;;;31.30;52.90;;;;;;5056611;28;20032;-85
2022/06/13 07:09:48;;;;;;;3.85;2.60;;;30.70;52.00;;;;;;5055176;28;20021;-84
2022/06/13 07:12:14;;;;;;;3.53;2.47;;;30.80;50.60;;;;;;5050488;28;20029;-79
2022/06/13 07:14:40;;;;;;;3.58;2.60;;;30.60;53.00;;;;;;5076622;28;20032;-81
2022/06/13 07:17:08;;;;;;;4.88;2.53;;;30.70;51.20;;;;;;5055869;28;20020;-84
2022/06/13 07:19:34;;;;;;;5.35;2.70;;;30.90;51.30;;;;;;5055722;28;20031;-83
2022/06/13 07:22:01;;;;;;;3.72;2.58;;;31.30;53.40;;;;;;5055513;28;20066;-82
2022/06/13 07:24:28;;;;;;;3.20;2.30;;;31.40;50.80;;;;;;5054813;28;20365;-91
2022/06/13 07:26:54;;;;;;;4.30;2.50;;;31.70;49.70;;;;;;5055044;28;20033;-86
2022/06/13 07:29:21;;;;;;;3.63;2.40;;;31.40;50.10;;;;;;5056426;28;20108;-84
2022/06/13 07:32:03;;;;;;;3.53;2.53;;;31.20;52.40;;;;;;5056959;28;20444;-84
2022/06/13 07:34:32;;;;;;;4.93;2.60;;;31.30;51.30;;;;;;5055878;28;20119;-86
2022/06/13 07:37:00;;;;;;;4.40;2.40;;;31.50;51.30;;;;;;5055882;28;20032;-83
2022/06/13 07:39:26;;;;;;;3.40;2.30;;;31.60;50.20;;;;;;5042387;28;20052;-86
2022/06/13 07:41:52;;;;;;;4.35;2.38;;;31.80;51.60;;;;;;5044009;28;20547;-80
2022/06/13 07:44:25;;;;;;;5.50;2.45;;;32.00;51.00;;;;;;5055817;28;20024;-82
2022/06/13 07:46:51;;;;;;;3.63;2.20;;;32.20;51.30;;;;;;5069807;28;20165;-81
2022/06/13 07:49:18;;;;;;;4.60;2.67;;;32.40;50.20;;;;;;5075940;28;20123;-81
2022/06/13 07:51:45;;;;;;;4.38;2.70;;;32.60;49.20;;;;;;5075482;28;20028;-83
2022/06/13 07:54:10;;;;;;;4.20;2.92;;;32.60;49.10;;;;;;5055863;28;20033;-82
2022/06/13 07:56:38;;;;;;;4.22;2.50;;;32.60;49.80;;;;;;5059409;28;20027;-91
2022/06/13 07:59:05;;;;;;;4.22;2.33;;;32.70;49.80;;;;;;5075214;28;20028;-81
2022/06/13 08:01:32;;;;;;;4.85;2.80;;;32.80;49.30;;;;;;5070135;28;20391;-83
2022/06/13 08:03:58;;;;;;;4.22;2.90;;;32.90;47.70;;;;;;5058927;28;20032;-82
2022/06/13 08:06:25;;;;;;;3.97;2.50;;;32.70;48.80;;;;;;5072845;28;20017;-81
2022/06/13 08:08:51;;;;;;;5.65;2.70;;;32.60;47.70;;;;;;5054451;28;20528;-77
2022/06/13 08:11:27;;;;;;;6.57;2.92;;;32.50;47.80;;;;;;5053872;28;20024;-82
2022/06/13 08:13:52;;;;;;;3.78;2.40;;;32.30;48.50;;;;;;5053699;28;20035;-77
2022/06/13 08:16:18;;;;;;;7.63;2.55;;;32.40;48.80;;;;;;5054236;28;20032;-81
2022/06/13 08:18:44;;;;;;;4.30;2.63;;;32.50;48.50;;;;;;5054809;28;20025;-88
2022/06/13 08:21:11;;;;;;;6.85;2.85;;;32.60;48.40;;;;;;5066179;28;20047;-91
2022/06/13 08:23:37;;;;;;;4.43;2.50;;;32.80;50.60;;;;;;5059147;28;20406;-93
2022/06/13 08:26:03;;;;;;;4.03;2.60;;;32.00;49.90;;;;;;5058765;28;20467;-93
2022/06/13 08:28:29;;;;;;;4.10;2.50;;;31.50;51.30;;;;;;5047278;28;20470;-85
2022/06/13 08:30:59;;;;;;;6.68;2.70;;;31.80;50.70;;;;;;4701744;28;10000043;-88
2022/06/13 08:33:25;;;;;;;5.78;2.63;;;32.20;50.80;;;;;;5059129;28;20115;-86
2022/06/13 08:35:52;;;;;;;4.28;2.55;;;32.60;50.10;;;;;;5051701;28;20151;-81
2022/06/13 08:38:18;;;;;;;4.57;2.38;;;32.80;50.50;;;;;;5056204;28;20018;-86
2022/06/13 08:41:12;;;;;;;4.90;2.38;;;32.70;48.70;;;;;;5038877;28;20048;-87
2022/06/13 08:44:03;;;;;;;3.72;2.50;;;33.10;49.10;;;;;;5055375;28;20173;-82
2022/06/13 08:46:44;;;;;;;3.60;2.33;;;33.30;49.30;;;;;;5071653;28;20037;-81
2022/06/13 08:49:38;;;;;;;102.20;33.33;;;33.40;49.70;;;;;;5054818;28;20104;-83
2022/06/13 08:52:15;;;;;;;28.40;8.18;;;33.60;50.60;;;;;;5055300;28;20021;-85
2022/06/13 08:54:45;;;;;;;27.52;6.55;;;33.60;49.60;;;;;;5091808;28;20476;-87
2022/06/13 08:57:11;;;;;;;5.68;2.90;;;33.50;48.10;;;;;;5063831;28;20024;-85
2022/06/13 09:00:03;;;;;;;9.57;3.00;;;33.40;48.00;;;;;;5056267;28;20399;-82
2022/06/13 09:02:49;;;;;;;6.82;2.60;;;33.40;48.60;;;;;;5059334;28;20043;-90
2022/06/13 09:05:33;;;;;;;4.80;2.50;;;33.60;47.90;;;;;;5058031;28;20016;-88
2022/06/13 09:08:10;;;;;;;3.72;2.50;;;33.90;47.70;;;;;;5049189;28;20062;-79
2022/06/13 09:10:57;;;;;;;6.97;3.25;;;33.70;48.20;;;;;;5057824;28;20524;-86
2022/06/13 09:13:25;;;;;;;5.50;2.40;;;33.80;48.70;;;;;;4706560;28;9999942;-86
2022/06/13 09:16:01;;;;;;;5.00;2.22;;;33.80;47.50;;;;;;5062947;28;20028;-89
2022/06/13 09:18:48;;;;;;;4.63;2.90;;;33.90;47.10;;;;;;5056706;28;20506;-83
2022/06/13 09:21:29;;;;;;;29.05;5.82;;;33.80;47.30;;;;;;4976954;28;20073;-85
2022/06/13 09:24:03;;;;;;;11.48;3.70;;;33.50;46.30;;;;;;4979109;28;20528;-83
2022/06/13 09:27:03;;;;;;;8.85;3.35;;;33.50;47.80;;;;;;5021339;28;20539;-79
2022/06/13 09:29:51;;;;;;;7.70;2.70;;;33.70;48.20;;;;;;5011695;28;20030;-82
2022/06/13 09:32:23;;;;;;;7.55;2.83;;;33.80;47.50;;;;;;4993765;28;20030;-85
2022/06/13 09:34:54;;;;;;;7.47;2.72;;;34.10;49.10;;;;;;4996534;28;20054;-87
2022/06/13 09:37:30;;;;;;;22.38;3.13;;;34.40;48.10;;;;;;5028502;28;20022;-90
2022/06/13 09:39:55;;;;;;;16.08;3.58;;;34.50;49.70;;;;;;4996029;28;20034;-81
2022/06/13 09:42:27;;;;;;;70.85;9.13;;;34.40;46.80;;;;;;4995425;28;20038;-83
2022/06/13 09:45:26;;;;;;;41.67;4.47;;;34.40;47.50;;;;;;5009301;28;20449;-84
2022/06/13 09:48:16;;;;;;;12.00;3.20;;;33.60;47.70;;;;;;5007802;28;20477;-82
2022/06/13 09:50:48;;;;;;;49.38;5.70;;;33.40;48.20;;;;;;4977315;28;20046;-86
2022/06/13 09:53:17;;;;;;;7.35;2.85;;;33.10;48.10;;;;;;4992528;28;20022;-88
2022/06/13 09:56:08;;;;;;;17.27;3.05;;;32.10;47.50;;;;;;4995090;28;20058;-84
2022/06/13 09:59:01;;;;;;;7.30;2.92;;;31.50;49.20;;;;;;5053221;28;20037;-84
2022/06/13 10:01:46;;;;;;;7.93;2.95;;;32.20;50.70;;;;;;5053159;28;20013;-85
2022/06/13 10:04:36;;;;;;;9.68;3.58;;;32.60;49.20;;;;;;5044887;28;20024;-86
2022/06/13 10:07:22;;;;;;;;;;;33.40;47.20;;;;;;5069693;28;20115;-84
2022/06/13 10:10:22;;;;;;;4.63;2.55;;;34.10;48.00;;;;;;5068092;28;19912;-88
2022/06/13 10:12:58;;;;;;;5.85;2.50;;;34.40;48.40;;;;;;5050157;28;20041;-83
2022/06/13 10:16:00;;;;;;;5.30;2.85;;;34.50;46.60;;;;;;5054022;28;20087;-81
2022/06/13 10:18:57;;;;;;;5.93;2.60;;;34.80;46.60;;;;;;5086025;28;20036;-88
2022/06/13 10:21:45;;;;;;;5.35;2.50;;;34.80;45.70;;;;;;5081679;28;20398;-87
2022/06/13 10:24:21;;;;;;;5.53;2.53;;;34.60;45.70;;;;;;5060597;28;20146;-88
2022/06/13 10:27:21;;;;;;;4.13;2.55;;;34.70;46.40;;;;;;5037841;28;20027;-87
2022/06/13 10:29:55;;;;;;;5.38;2.70;;;35.10;47.30;;;;;;5069959;28;20035;-87
2022/06/13 10:33:03;;;;;;;3.58;2.50;;;35.20;44.60;;;;;;5076514;28;20478;-87
2022/06/13 10:35:50;;;;;;;6.78;2.70;;;35.10;46.50;;;;;;5028710;28;20432;-77
2022/06/13 10:38:55;;;;;;;4.53;2.85;;;35.00;45.70;;;;;;5012727;28;20034;-85
2022/06/13 10:41:23;;;;;;;5.72;2.58;;;34.50;47.10;;;;;;5026226;28;20034;-85
2022/06/13 10:43:49;;;;;;;4.57;2.60;;;34.30;46.20;;;;;;5011501;28;20061;-82
2022/06/13 10:46:15;;;;;;;4.43;2.78;;;34.50;46.40;;;;;;4994261;28;20041;-79
2022/06/13 10:48:52;;;;;;;5.95;2.80;;;35.00;46.60;;;;;;5027958;28;20163;-82
2022/06/13 10:51:18;;;;;;;5.00;2.65;;;35.10;46.60;;;;;;5011706;28;20436;-90
2022/06/13 10:53:57;;;;;;;3.92;2.83;;;35.00;47.10;;;;;;4995996;28;20520;-83
2022/06/13 10:56:41;;;;;;;6.32;2.70;;;35.10;47.30;;;;;;4995546;28;20022;-87
2022/06/13 10:59:25;;;;;;;4.57;2.70;;;35.30;46.80;;;;;;4993411;28;20489;-84
2022/06/13 11:01:58;;;;;;;5.28;2.70;;;35.30;46.10;;;;;;4994337;28;20029;-85
2022/06/13 11:04:24;;;;;;;6.90;2.80;;;35.50;46.70;;;;;;4994608;28;20037;-84
2022/06/13 11:06:53;;;;;;;5.43;2.75;;;35.40;45.90;;;;;;4995091;28;20044;-86
2022/06/13 11:09:31;;;;;;;9.05;2.90;;;35.30;46.50;;;;;;4995346;28;20052;-85
2022/06/13 11:12:04;;;;;;;3.90;2.80;;;35.30;47.80;;;;;;5032377;28;20047;-79
2022/06/13 11:14:37;;;;;;;4.55;2.70;;;35.20;47.50;;;;;;5053276;28;20017;-87
2022/06/13 11:22:43;;;;;;;8.02;3.00;;;35.10;48.00;;;;;;5053553;28;20059;-88
2022/06/13 11:25:29;;;;;;;5.50;3.33;;;35.10;48.20;;;;;;5035584;28;20025;-87
2022/06/13 11:28:11;;;;;;;4.97;2.88;;;34.80;48.90;;;;;;5035851;28;20055;-85
2022/06/13 11:30:43;;;;;;;7.53;3.00;;;34.80;49.30;;;;;;5035431;28;20387;-90
2022/06/13 11:33:18;;;;;;;4.57;3.45;;;35.00;49.20;;;;;;5053253;28;20043;-86
2022/06/13 11:35:50;;;;;;;4.43;3.05;;;35.40;47.80;;;;;;5069365;28;20083;-86
2022/06/13 11:38:18;;;;;;;5.20;3.13;;;35.60;48.50;;;;;;5036113;28;20049;-89
2022/06/13 11:41:17;;;;;;;4.50;3.30;;;35.70;48.20;;;;;;5035372;28;20581;-89
2022/06/13 11:44:00;;;;;;;5.13;3.33;;;35.70;49.10;;;;;;5050715;28;20049;-86
2022/06/13 11:46:53;;;;;;;5.00;2.95;;;35.50;48.00;;;;;;5035240;28;20028;-87
2022/06/13 11:49:42;;;;;;;4.90;3.00;;;35.50;48.00;;;;;;5068920;28;20029;-81
2022/06/13 11:52:13;;;;;;;3.97;3.28;;;35.10;49.20;;;;;;5035380;28;20021;-93
2022/06/13 11:54:48;;;;;;;7.20;3.40;;;35.00;49.20;;;;;;5071126;28;20021;-87
2022/06/13 11:57:14;;;;;;;4.40;3.00;;;34.80;49.20;;;;;;5073578;28;20487;-82
2022/06/13 12:00:03;;;;;;;6.32;3.35;;;34.60;47.40;;;;;;5072991;28;20025;-89
2022/06/13 12:02:41;;;;;;;;;;;34.40;49.10;;;;;;4387350;28;10000721;-85
2022/06/13 12:05:38;;;;;;;14.02;3.55;;;34.60;50.40;;;;;;5052372;28;20358;-84
2022/06/13 12:08:19;;;;;;;5.43;3.17;;;34.70;49.40;;;;;;5059546;28;20025;-85
2022/06/13 12:11:06;;;;;;;4.47;3.10;;;34.70;49.60;;;;;;5059680;28;20123;-86
2022/06/13 12:13:41;;;;;;;6.53;3.17;;;34.90;47.50;;;;;;5059116;28;20146;-83
2022/06/13 12:16:10;;;;;;;4.40;3.15;;;34.70;47.80;;;;;;5059598;28;20109;-83
2022/06/13 12:18:54;;;;;;;6.67;3.40;;;34.70;48.00;;;;;;5059299;28;20115;-84
2022/06/13 12:21:22;;;;;;;4.47;3.00;;;35.00;48.30;;;;;;5058769;28;20110;-84
2022/06/13 12:23:58;;;;;;;8.80;3.90;;;34.80;48.90;;;;;;5059373;28;20066;-83
2022/06/13 12:26:36;;;;;;;4.25;3.40;;;34.80;49.60;;;;;;5059373;28;20090;-87
2022/06/13 12:29:46;;;;;;;5.50;3.38;;;34.90;50.10;;;;;;5058660;28;20075;-86
2022/06/13 12:32:18;;;;;;;7.03;3.38;;;34.70;49.80;;;;;;5058905;28;20020;-86
2022/06/13 12:35:11;;;;;;;6.00;3.53;;;34.70;50.10;;;;;;5058234;28;20028;-82
2022/06/13 12:38:00;;;;;;;7.40;3.50;;;34.70;49.60;;;;;;5058653;28;20519;-80
2022/06/13 12:40:53;;;;;;;5.40;3.73;;;34.80;49.10;;;;;;5075711;28;20024;-84
2022/06/13 12:43:25;;;;;;;5.38;3.70;;;34.90;50.30;;;;;;5075662;28;20029;-82
2022/06/13 12:46:14;;;;;;;9.60;4.28;;;35.00;49.30;;;;;;5075777;28;20074;-81
2022/06/13 12:48:58;;;;;;;6.10;3.60;;;35.10;50.50;;;;;;5062658;28;20479;-80
2022/06/13 12:51:38;;;;;;;6.88;4.15;;;35.10;49.80;;;;;;5057918;28;20025;-78
2022/06/13 12:54:16;;;;;;;8.05;4.30;;;34.70;50.80;;;;;;5058169;28;20542;-85
2022/06/13 12:57:03;;;;;;;6.68;4.38;;;34.60;52.10;;;;;;5058318;28;20064;-85
2022/06/13 12:59:59;;;;;;;8.52;4.53;;;34.30;51.60;;;;;;5057936;28;20036;-84
2022/06/13 13:02:25;;;;;;;10.98;4.35;;;33.70;51.80;;;;;;5075731;28;20115;-86
2022/06/13 13:04:53;;;;;;;7.80;4.35;;;33.00;52.00;;;;;;5057637;28;20533;-87
2022/06/13 13:07:47;;;;;;;6.30;3.97;;;33.00;52.60;;;;;;5056944;28;20024;-82
2022/06/13 13:10:50;;;;;;;9.55;4.20;;;33.00;51.90;;;;;;5057832;28;20029;-83
2022/06/13 13:13:22;;;;;;;6.57;4.10;;;32.90;51.80;;;;;;5057772;28;20029;-79
2022/06/13 13:15:57;;;;;;;7.40;4.28;;;32.70;52.80;;;;;;5057476;28;20532;-84
2022/06/13 13:18:46;;;;;;;7.22;4.65;;;32.50;53.00;;;;;;5075700;28;20032;-85
2022/06/13 13:21:16;;;;;;;8.00;4.90;;;32.80;53.30;;;;;;5075324;28;20093;-83
2022/06/13 13:24:01;;;;;;;6.18;4.38;;;33.00;52.70;;;;;;5075342;28;20029;-86
2022/06/13 13:26:36;;;;;;;7.20;4.93;;;33.00;53.00;;;;;;5057246;28;20483;-81
2022/06/13 13:29:17;;;;;;;11.55;4.75;;;32.70;52.90;;;;;;5075400;28;20025;-82
2022/06/13 13:32:07;;;;;;;9.52;4.40;;;32.50;53.90;;;;;;5074813;28;20349;-82
2022/06/13 13:34:48;;;;;;;6.70;4.47;;;32.40;53.60;;;;;;5056840;28;20074;-81
2022/06/13 13:37:29;;;;;;;5.82;4.70;;;32.50;53.30;;;;;;5057180;28;20059;-85
2022/06/13 13:40:16;;;;;;;5.47;4.10;;;32.40;53.20;;;;;;5074969;28;20552;-78
2022/06/13 13:42:53;;;;;;;6.35;4.40;;;32.70;53.60;;;;;;5074833;28;20552;-79
2022/06/13 13:45:32;;;;;;;5.20;4.03;;;32.70;54.10;;;;;;5057018;28;20090;-84
2022/06/13 13:48:21;;;;;;;5.60;4.00;;;32.60;52.70;;;;;;5074521;28;20028;-81